Ariel, Israel
Current Conditions -  °F | °C
As of 2:50 PM on Friday 19 Dec 2014 (Local Time) from LLHA Reporting Station
Overcast Overcast  
Wind Chill: 64°   Ceiling: 4000
Heat Index: 64°   Visibility: 6mi
Dew Point: 54°   Wind: 3mph
Humidity: 68%   Direction: NA
Pressure: 30.06"   Gusts: NA
Location:  32.47°N, 35.13°E
Report Text: LLHA 191150Z VRB03KT 9999 OVC040 18/12 Q1018
Loading
Personal Weather Stations






























Interactive Weather Map New forecast layout! Learn more

10-Day Weather Forecast

Advertisements
Track Severe Weather on mobile